Time;durP1;ratioP1;P1;durP2;ratioP2;P2;SDS_P1;SDS_P2;PMS_P1;PMS_P2;Temp;Humidity;BMP_temperature;BMP_pressure;BME280_temperature;BME280_humidity;BME280_pressure;Samples;Min_cycle;Max_cycle;Signal;HPM_P1;HPM_P2
2022/03/26 00:00:32;;;;;;;17.98;11.95;;;;;;;8.14;56.74;102966.09;5113885;28;20047;-90
2022/03/26 00:02:58;;;;;;;18.83;11.90;;;;;;;8.15;57.33;102966.94;5098004;28;20036;-90
2022/03/26 00:05:23;;;;;;;19.52;12.35;;;;;;;8.07;56.69;102963.16;5115325;28;20077;-91
2022/03/26 00:07:54;;;;;;;20.05;12.57;;;;;;;8.08;56.63;102970.25;5097738;28;20020;-90
2022/03/26 00:10:19;;;;;;;20.55;12.43;;;;;;;8.05;57.29;102969.72;5114277;28;20474;-90
2022/03/26 00:12:58;;;;;;;;;;;;;;;;;;;;;
2022/03/26 00:15:26;;;;;;;18.17;12.05;;;;;;;7.92;57.14;102961.91;5098162;28;20016;-90
2022/03/26 00:17:55;;;;;;;17.73;11.23;;;;;;;7.93;57.66;102977.13;5097539;28;20024;-91
2022/03/26 00:20:25;;;;;;;18.67;12.50;;;;;;;7.93;57.44;102977.13;5098687;28;20039;-91
2022/03/26 00:23:03;;;;;;;19.88;11.77;;;;;;;7.86;57.45;102970.59;5099550;28;20036;-91
2022/03/26 00:25:41;;;;;;;20.58;12.60;;;;;;;7.88;56.18;102971.28;5115071;28;20024;-90
2022/03/26 00:28:19;;;;;;;;;;;;;;;;;;;;;
2022/03/26 00:30:45;;;;;;;19.60;12.73;;;;;;;7.82;58.25;102970.03;5098394;28;20436;-91
2022/03/26 00:33:16;;;;;;;18.50;11.80;;;;;;;7.69;58.48;102954.13;5113743;28;20115;-89
2022/03/26 00:35:42;;;;;;;18.60;11.88;;;;;;;7.68;58.70;102954.28;5096290;28;20056;-91
2022/03/26 00:38:16;;;;;;;18.88;12.07;;;;;;;7.69;59.49;102962.25;5096006;28;20055;-91
2022/03/26 00:40:52;;;;;;;19.67;12.40;;;;;;;7.61;59.01;102962.09;5097776;28;20519;-91
2022/03/26 00:43:22;;;;;;;22.13;12.68;;;;;;;7.61;58.68;102961.25;5115441;28;20058;-91
2022/03/26 00:45:58;;;;;;;;;;;;;;;;;;;;;
2022/03/26 00:48:28;;;;;;;19.63;12.77;;;;;;;7.61;59.28;102974.75;5098840;28;20351;-90
2022/03/26 00:50:54;;;;;;;21.13;13.80;;;;;;;7.54;59.04;102964.53;5080793;28;20040;-91
2022/03/26 00:53:19;;;;;;;19.63;13.35;;;;;;;7.50;59.05;102956.84;5097203;28;20034;-91
2022/03/26 00:55:57;;;;;;;20.52;13.32;;;;;;;7.46;59.38;102955.44;5096788;28;20036;-91
2022/03/26 00:58:23;;;;;;;20.15;12.75;;;;;;;7.47;60.13;102960.69;5113559;28;20115;-91
2022/03/26 01:01:01;;;;;;;18.38;12.55;;;;;;;7.50;59.51;102967.66;5112776;28;20135;-90
2022/03/26 01:03:29;;;;;;;20.58;13.25;;;;;;;7.44;60.85;102968.22;5079036;28;20024;-91
2022/03/26 01:05:56;;;;;;;21.00;13.07;;;;;;;7.34;60.63;102950.19;5079410;28;20127;-91
2022/03/26 01:08:27;;;;;;;19.15;12.82;;;;;;;7.32;60.95;102948.59;5095769;28;20032;-91
2022/03/26 01:10:59;;;;;;;18.38;13.00;;;;;;;7.28;60.75;102949.88;5095411;28;20071;-91
2022/03/26 01:13:31;;;;;;;20.48;12.50;;;;;;;7.26;61.95;102950.03;5097100;28;20031;-91
2022/03/26 01:15:57;;;;;;;;;;;;;;;7.28;56.20;102961.56;5079915;28;20036;-91
2022/03/26 01:18:26;;;;;;;18.40;11.88;;;;;;;7.23;63.46;102960.28;5112320;28;19929;-90
2022/03/26 01:20:54;;;;;;;18.52;12.23;;;;;;;7.15;64.40;102955.59;5096693;28;20024;-90
2022/03/26 01:23:27;;;;;;;16.95;11.65;;;;;;;7.14;65.02;102954.72;5112647;28;20038;-90
2022/03/26 01:26:02;;;;;;;;;;;;;;;;;;;;;
2022/03/26 01:28:30;;;;;;;18.42;11.98;;;;;;;7.01;63.70;102948.72;5096711;28;20031;-91
2022/03/26 01:30:59;;;;;;;20.27;12.40;;;;;;;7.03;62.99;102953.00;5112014;28;20482;-91
2022/03/26 01:33:27;;;;;;;19.75;12.48;;;;;;;6.96;63.04;102946.47;5113041;28;20034;-90
2022/03/26 01:35:58;;;;;;;17.92;12.15;;;;;;;6.88;63.45;102937.34;5077885;28;20039;-91
2022/03/26 01:38:28;;;;;;;18.48;12.35;;;;;;;6.83;62.81;102935.06;5111893;28;20035;-90
2022/03/26 01:40:56;;;;;;;20.33;12.48;;;;;;;6.81;63.79;102934.38;5095114;28;20027;-91
2022/03/26 01:43:22;;;;;;;18.05;12.20;;;;;;;6.76;63.30;102950.09;5111508;28;20039;-90
2022/03/26 01:45:47;;;;;;;20.33;13.15;;;;;;;6.79;63.25;102955.22;5095596;28;20024;-90
2022/03/26 01:48:13;;;;;;;20.25;13.32;;;;;;;6.73;62.94;102947.69;5094817;28;20024;-90
2022/03/26 01:50:42;;;;;;;21.88;13.18;;;;;;;6.67;63.24;102949.09;5094950;28;20020;-91
2022/03/26 01:53:12;;;;;;;19.90;13.30;;;;;;;6.73;63.33;102958.47;5095647;28;20031;-90
2022/03/26 01:55:41;;;;;;;23.13;15.18;;;;;;;6.70;63.57;102958.75;5078597;28;20136;-90
2022/03/26 01:58:08;;;;;;;19.98;13.35;;;;;;;6.64;63.47;102954.75;5095587;28;20029;-90
2022/03/26 02:00:43;;;;;;;21.05;13.27;;;;;;;6.70;63.00;102961.47;5093610;28;20185;-90
2022/03/26 02:03:21;;;;;;;19.45;13.05;;;;;;;6.68;62.92;102967.84;5111805;28;20040;-90
2022/03/26 02:05:50;;;;;;;20.20;13.52;;;;;;;6.63;63.53;102963.88;5096198;28;20035;-90
2022/03/26 02:08:16;;;;;;;20.30;13.70;;;;;;;6.51;64.26;102944.25;5111514;28;20066;-90
2022/03/26 02:10:44;;;;;;;20.33;13.07;;;;;;;6.54;63.67;102953.88;5111252;28;20028;-90
2022/03/26 02:13:09;;;;;;;19.85;13.60;;;;;;;6.46;63.64;102941.94;5094651;28;20116;-90
2022/03/26 02:15:37;;;;;;;22.35;15.13;;;;;;;6.52;64.04;102955.88;5110293;28;20051;-90
2022/03/26 02:18:03;;;;;;;24.42;14.85;;;;;;;6.48;63.69;102953.47;5093706;28;20023;-90
2022/03/26 02:20:33;;;;;;;21.58;13.77;;;;;;;6.53;63.68;102952.19;5111096;28;20024;-90
2022/03/26 02:23:04;;;;;;;20.65;13.68;;;;;;;6.47;63.81;102948.19;5077510;28;20097;-90
2022/03/26 02:25:33;;;;;;;21.20;13.73;;;;;;;6.44;64.26;102943.94;5112253;28;20019;-90
2022/03/26 02:28:01;;;;;;;19.23;12.25;;;;;;;6.46;64.30;102951.88;5094281;28;20024;-90
2022/03/26 02:30:33;;;;;;;19.92;13.45;;;;;;;6.42;63.85;102945.91;5094227;28;20364;-90
2022/03/26 02:32:58;;;;;;;20.92;13.57;;;;;;;6.47;64.22;102954.44;5111662;28;20058;-90
2022/03/26 02:35:27;;;;;;;20.83;12.70;;;;;;;6.37;65.10;102941.91;5093836;28;20032;-90
2022/03/26 02:38:00;;;;;;;17.67;11.48;;;;;;;6.36;65.26;102946.44;5094172;28;20019;-90
2022/03/26 02:40:27;;;;;;;21.40;13.07;;;;;;;6.35;64.70;102946.56;5110745;28;20115;-91
2022/03/26 02:42:55;;;;;;;19.08;11.95;;;;;;;6.35;64.69;102946.56;5094798;28;20077;-90
2022/03/26 02:45:23;;;;;;;21.80;13.48;;;;;;;6.34;64.25;102947.59;5110651;28;20039;-90
2022/03/26 02:47:56;;;;;;;19.92;13.63;;;;;;;6.29;64.71;102942.59;5093873;28;20415;-90
2022/03/26 02:50:30;;;;;;;21.75;14.80;;;;;;;6.27;63.38;102945.41;5095513;28;20028;-90
2022/03/26 02:52:58;;;;;;;21.75;13.98;;;;;;;6.34;64.83;102958.38;5093786;28;20038;-89
2022/03/26 02:55:23;;;;;;;19.88;13.75;;;;;;;6.25;66.02;102944.69;5110786;28;20024;-90
2022/03/26 02:57:52;;;;;;;18.85;12.50;;;;;;;6.27;65.51;102949.97;5093833;28;20113;-90
2022/03/26 03:00:17;;;;;;;19.48;12.43;;;;;;;6.26;66.53;102970.69;5110651;28;20031;-91
2022/03/26 03:02:44;;;;;;;19.92;13.25;;;;;;;6.23;67.16;102965.56;5076963;28;20044;-91
2022/03/26 03:05:12;;;;;;;20.55;13.57;;;;;;;6.13;66.65;102943.94;5110644;28;20039;-91
2022/03/26 03:07:40;;;;;;;21.92;14.30;;;;;;;6.20;66.23;102962.25;5093702;28;20110;-90
2022/03/26 03:10:11;;;;;;;21.52;13.10;;;;;;;6.13;67.19;102949.31;5093938;28;20028;-91
2022/03/26 03:13:00;;;;;;;20.70;13.65;;;;;;;6.09;66.92;102952.44;5094164;28;20016;-89
2022/03/26 03:15:34;;;;;;;20.52;13.38;;;;;;;6.03;67.71;102944.88;5097203;28;20440;-91
2022/03/26 03:18:02;;;;;;;22.33;13.60;;;;;;;5.97;67.21;102954.34;5112905;28;20027;-90
2022/03/26 03:20:29;;;;;;;20.90;13.60;;;;;;;6.01;67.42;102958.50;5096243;28;20111;-90
2022/03/26 03:23:03;;;;;;;20.42;13.48;;;;;;;6.01;66.71;102961.19;5093819;28;20047;-90
2022/03/26 03:25:30;;;;;;;19.77;13.77;;;;;;;5.87;67.61;102948.03;5095660;28;20084;-90
2022/03/26 03:28:06;;;;;;;20.10;12.80;;;;;;;5.84;67.92;102948.28;5097359;28;20016;-91
2022/03/26 03:30:32;;;;;;;21.10;14.02;;;;;;;5.85;68.57;102952.69;5097537;28;20016;-91
2022/03/26 03:32:57;;;;;;;21.48;14.13;;;;;;;5.85;68.74;102955.41;5114712;28;20031;-90
2022/03/26 03:35:26;;;;;;;19.52;12.68;;;;;;;5.81;68.68;102957.47;5115067;28;20028;-91
2022/03/26 03:37:54;;;;;;;20.00;13.30;;;;;;;5.77;68.58;102956.03;5098249;28;20028;-91
2022/03/26 03:40:20;;;;;;;19.20;13.07;;;;;;;5.72;68.85;102950.19;5080461;28;20113;-91
2022/03/26 03:42:45;;;;;;;22.52;13.48;;;;;;;5.67;68.71;102941.66;5097492;28;20436;-90
2022/03/26 03:45:14;;;;;;;19.23;13.35;;;;;;;5.67;68.46;102947.03;5098318;28;20031;-90
2022/03/26 03:47:40;;;;;;;22.73;14.23;;;;;;;5.62;68.30;102956.38;5097276;28;20052;-90
2022/03/26 03:50:06;;;;;;;21.45;13.90;;;;;;;5.58;68.51;102948.66;5114106;28;20507;-90
2022/03/26 03:52:32;;;;;;;20.35;13.25;;;;;;;5.65;68.44;102967.88;5113990;28;20027;-90
2022/03/26 03:54:57;;;;;;;20.77;13.75;;;;;;;5.58;68.52;102962.13;5079580;28;20032;-90
2022/03/26 03:57:23;;;;;;;22.50;13.85;;;;;;;5.58;68.23;102970.22;5096848;28;20039;-90
2022/03/26 03:59:51;;;;;;;21.38;13.68;;;;;;;5.50;67.49;102965.50;5097118;28;20028;-89
2022/03/26 04:02:16;;;;;;;19.58;13.23;;;;;;;5.50;68.38;102968.19;5113667;28;20048;-89
2022/03/26 04:04:50;;;;;;;20.40;13.77;;;;;;;5.51;67.93;102975.28;5097596;28;20478;-91
2022/03/26 04:07:19;;;;;;;20.10;12.68;;;;;;;5.46;68.64;102974.81;5098087;28;20028;-90
2022/03/26 04:09:44;;;;;;;22.13;13.00;;;;;;;5.46;68.91;102972.09;5096314;28;20020;-90
2022/03/26 04:12:10;;;;;;;18.95;13.13;;;;;;;5.40;68.93;102969.94;5096432;28;20085;-90
2022/03/26 04:14:38;;;;;;;21.65;13.60;;;;;;;5.41;69.22;102967.13;5113214;28;20019;-89
2022/03/26 04:17:07;;;;;;;19.83;12.70;;;;;;;5.35;69.72;102964.09;5113402;28;20028;-90
2022/03/26 04:19:33;;;;;;;20.90;12.85;;;;;;;5.34;69.81;102965.06;5097665;28;20024;-90
2022/03/26 04:22:01;;;;;;;22.13;13.23;;;;;;;5.30;69.90;102975.25;5113681;28;20032;-90
2022/03/26 04:24:30;;;;;;;19.70;12.50;;;;;;;5.29;70.01;102970.00;5096448;28;20028;-90
2022/03/26 04:26:55;;;;;;;20.20;12.90;;;;;;;5.29;70.19;102978.09;5097379;28;20035;-89
2022/03/26 04:29:23;;;;;;;19.50;12.23;;;;;;;5.28;69.91;102977.22;5096114;28;20027;-90
2022/03/26 04:31:49;;;;;;;18.92;12.15;;;;;;;5.20;71.39;102968.94;5096424;28;20062;-90
2022/03/26 04:34:22;;;;;;;18.40;12.27;;;;;;;5.22;71.26;102975.03;5112792;28;20036;-90
2022/03/26 04:36:47;;;;;;;20.88;12.82;;;;;;;5.17;71.63;102967.34;5097220;28;20031;-90
2022/03/26 04:39:18;;;;;;;20.10;12.95;;;;;;;5.19;71.49;102978.81;5112042;28;20023;-89
2022/03/26 04:41:43;;;;;;;20.65;12.38;;;;;;;5.11;71.99;102962.47;5063208;28;20028;-90
2022/03/26 04:44:11;;;;;;;18.00;12.05;;;;;;;5.08;72.40;102968.13;5095563;28;20456;-90
2022/03/26 04:46:39;;;;;;;17.77;11.23;;;;;;;5.12;72.08;102974.09;5096113;28;20028;-89
2022/03/26 04:49:07;;;;;;;19.42;12.75;;;;;;;5.04;72.45;102966.66;5079439;28;20161;-90
2022/03/26 04:51:36;;;;;;;19.45;12.75;;;;;;;5.04;72.18;102966.66;5112797;28;20020;-89
2022/03/26 04:54:04;;;;;;;18.35;12.00;;;;;;;4.96;71.97;102961.91;5096121;28;20398;-89
2022/03/26 04:56:29;;;;;;;18.63;12.48;;;;;;;4.95;71.50;102960.19;5096309;28;20031;-89
2022/03/26 04:59:00;;;;;;;19.10;11.75;;;;;;;4.91;71.91;102961.44;5096617;28;20028;-89
2022/03/26 05:01:28;;;;;;;19.55;12.18;;;;;;;4.94;72.53;102965.72;5112583;28;20494;-89
2022/03/26 05:03:56;;;;;;;16.08;10.85;;;;;;;4.88;72.49;102961.69;5096588;28;20467;-89
2022/03/26 05:06:24;;;;;;;20.00;11.35;;;;;;;4.95;73.21;102973.66;5111669;28;20032;-89
2022/03/26 05:08:52;;;;;;;17.23;11.32;;;;;;;4.93;73.41;102972.91;5078759;28;20028;-90
2022/03/26 05:11:28;;;;;;;17.13;12.02;;;;;;;4.87;72.77;102968.91;5096582;28;20520;-89
2022/03/26 05:13:53;;;;;;;17.77;12.07;;;;;;;4.80;73.39;102965.00;5096616;28;20444;-89
2022/03/26 05:16:19;;;;;;;19.33;12.45;;;;;;;4.87;73.49;102981.47;5095381;28;20028;-89
2022/03/26 05:18:44;;;;;;;19.45;11.77;;;;;;;4.81;73.55;102969.38;5078402;28;20468;-89
2022/03/26 05:21:13;;;;;;;18.20;12.23;;;;;;;4.76;72.76;102962.69;5095886;28;20032;-89
2022/03/26 05:23:46;;;;;;;21.70;12.68;;;;;;;4.81;71.61;102987.38;5097343;28;20035;-88
2022/03/26 05:26:12;;;;;;;21.75;13.15;;;;;;;4.74;71.69;102981.66;5100937;28;20024;-89
2022/03/26 05:28:38;;;;;;;22.38;13.70;;;;;;;4.76;71.72;102981.53;5116861;28;20525;-89
2022/03/26 05:31:06;;;;;;;21.23;13.73;;;;;;;4.74;71.59;102985.19;5102223;28;20028;-89
2022/03/26 05:33:33;;;;;;;20.75;13.35;;;;;;;4.70;71.46;102981.03;5100113;28;20028;-89
2022/03/26 05:36:02;;;;;;;19.70;13.70;;;;;;;4.76;71.43;102992.28;5080549;28;20077;-90
2022/03/26 05:38:27;;;;;;;20.60;13.63;;;;;;;4.79;71.56;102998.25;5115770;28;20023;-89
2022/03/26 05:40:55;;;;;;;20.63;13.80;;;;;;;4.72;71.73;102988.97;5098320;28;20080;-89
2022/03/26 05:43:23;;;;;;;19.75;13.05;;;;;;;4.76;71.74;102998.50;5112415;28;20032;-89
2022/03/26 05:45:50;;;;;;;19.13;13.27;;;;;;;4.70;72.14;102991.78;5096096;28;20020;-90
2022/03/26 05:48:19;;;;;;;20.77;12.77;;;;;;;4.70;71.97;102991.78;5094872;28;20028;-89
2022/03/26 05:50:47;;;;;;;21.55;13.35;;;;;;;4.68;72.42;103004.50;5111936;28;20101;-89
2022/03/26 05:53:12;;;;;;;20.35;13.35;;;;;;;4.78;72.22;103011.81;5096039;28;20028;-90
2022/03/26 05:55:41;;;;;;;21.02;13.38;;;;;;;4.77;72.45;103008.28;5095674;28;20035;-90
2022/03/26 05:58:10;;;;;;;21.92;13.52;;;;;;;4.78;72.31;103003.75;5078367;28;20077;-89
2022/03/26 06:00:41;;;;;;;22.90;14.70;;;;;;;4.82;72.45;103014.13;5094254;28;20473;-89
2022/03/26 06:03:06;;;;;;;20.30;13.88;;;;;;;4.94;72.00;103030.28;5111156;28;20464;-89
2022/03/26 06:05:32;;;;;;;20.88;13.30;;;;;;;4.88;70.94;103020.84;5111299;28;20036;-90
2022/03/26 06:08:07;;;;;;;20.58;13.05;;;;;;;4.95;70.78;103018.53;5093986;28;20561;-90
2022/03/26 06:10:37;;;;;;;21.63;14.65;;;;;;;5.08;71.35;103035.38;5094239;28;20052;-90
2022/03/26 06:13:06;;;;;;;23.27;15.02;;;;;;;5.14;71.06;103028.63;5111590;28;20019;-90
2022/03/26 06:15:34;;;;;;;21.75;13.73;;;;;;;5.12;71.11;103020.69;5094374;28;20032;-90
2022/03/26 06:18:03;;;;;;;22.33;13.95;;;;;;;5.17;70.53;103026.56;5112043;28;20040;-90
2022/03/26 06:20:32;;;;;;;21.00;13.52;;;;;;;5.23;70.60;103019.81;5111195;28;20028;-90
2022/03/26 06:22:58;;;;;;;20.02;12.95;;;;;;;5.36;70.79;103033.09;5110530;28;20058;-80
2022/03/26 06:25:23;;;;;;;21.08;13.25;;;;;;;5.37;69.74;103024.88;5094741;28;20064;-81
2022/03/26 06:27:49;;;;;;;19.15;12.60;;;;;;;5.48;69.75;103025.81;5094824;28;20495;-81
2022/03/26 06:30:15;;;;;;;20.40;13.15;;;;;;;5.58;69.82;103032.16;5094676;28;20474;-81
2022/03/26 06:32:42;;;;;;;21.83;13.70;;;;;;;5.64;69.88;103039.75;5094590;28;20036;-81
2022/03/26 06:35:08;;;;;;;22.08;13.57;;;;;;;5.71;69.56;103038.22;5093237;28;20128;-81
2022/03/26 06:37:33;;;;;;;21.88;13.00;;;;;;;5.74;69.42;103043.38;5093276;28;20032;-80
2022/03/26 06:39:59;;;;;;;23.25;14.43;;;;;;;5.83;68.98;103040.88;5093258;28;20030;-81
2022/03/26 06:42:25;;;;;;;21.42;14.32;;;;;;;5.88;69.25;103039.50;5094398;28;20149;-81
2022/03/26 06:44:54;;;;;;;20.08;13.65;;;;;;;5.94;68.85;103049.75;5095236;28;20060;-80
2022/03/26 06:47:19;;;;;;;22.20;14.18;;;;;;;6.04;68.32;103054.38;5110275;28;20352;-81
2022/03/26 06:49:45;;;;;;;22.88;14.32;;;;;;;6.10;67.99;103054.72;5094200;28;20024;-82
2022/03/26 06:52:12;;;;;;;21.98;14.95;;;;;;;6.17;67.72;103055.06;5076253;28;20039;-81
2022/03/26 06:54:37;;;;;;;22.70;14.70;;;;;;;6.22;68.08;103046.56;5109646;28;20028;-81
2022/03/26 06:57:04;;;;;;;22.27;14.38;;;;;;;6.27;67.77;103061.34;5094202;28;20099;-81
2022/03/26 06:59:29;;;;;;;21.88;14.40;;;;;;;6.37;67.70;103063.25;5092976;28;20035;-81
2022/03/26 07:01:54;;;;;;;22.20;13.88;;;;;;;6.42;67.33;103059.19;5091965;28;20067;-81
2022/03/26 07:04:20;;;;;;;19.65;12.77;;;;;;;6.50;67.27;103063.91;5094011;28;20024;-80
2022/03/26 07:06:45;;;;;;;19.80;13.05;;;;;;;6.57;66.93;103062.38;5093752;28;20488;-80
2022/03/26 07:09:11;;;;;;;21.00;12.73;;;;;;;6.64;66.91;103068.94;5092742;28;20024;-81
2022/03/26 07:11:36;;;;;;;20.85;12.95;;;;;;;6.70;66.56;103062.13;5093997;28;20035;-81
2022/03/26 07:14:01;;;;;;;21.10;13.50;;;;;;;6.78;66.37;103059.63;5092792;28;20444;-81
2022/03/26 07:16:29;;;;;;;20.67;13.75;;;;;;;6.88;65.97;103064.19;5075805;28;20024;-81
2022/03/26 07:18:55;;;;;;;19.42;13.25;;;;;;;6.95;66.46;103057.25;5092390;28;20032;-80
2022/03/26 07:21:21;;;;;;;21.98;13.68;;;;;;;7.03;66.77;103069.06;5076157;28;20115;-80
2022/03/26 07:23:46;;;;;;;21.38;13.25;;;;;;;7.10;66.58;103058.59;5092919;28;20448;-80
2022/03/26 07:26:12;;;;;;;21.65;13.45;;;;;;;7.20;65.78;103064.88;5092773;28;20050;-88
2022/03/26 07:28:37;;;;;;;21.38;12.82;;;;;;;7.26;65.08;103066.13;5109177;28;20024;-88
2022/03/26 07:31:03;;;;;;;21.13;13.13;;;;;;;7.34;65.37;103063.59;5092848;28;20182;-88
2022/03/26 07:33:31;;;;;;;18.45;12.43;;;;;;;7.39;65.35;103071.28;5076275;28;20535;-88
2022/03/26 07:35:57;;;;;;;20.77;13.15;;;;;;;7.49;65.12;103068.59;5059185;28;20364;-88
2022/03/26 07:38:22;;;;;;;19.50;13.18;;;;;;;7.56;65.46;103069.75;5075542;28;20024;-88
2022/03/26 07:40:52;;;;;;;20.60;13.05;;;;;;;7.62;64.92;103071.00;5075684;28;20053;-88
2022/03/26 07:43:20;;;;;;;21.27;12.52;;;;;;;7.68;64.67;103065.06;5093878;28;20031;-88
2022/03/26 07:45:45;;;;;;;19.50;12.05;;;;;;;7.69;64.91;103062.22;5092444;28;20028;-88
2022/03/26 07:48:11;;;;;;;18.98;12.32;;;;;;;7.81;64.68;103070.16;5093006;28;20028;-88
2022/03/26 07:50:39;;;;;;;21.52;12.75;;;;;;;7.93;64.33;103073.56;5108602;28;20081;-88
2022/03/26 07:53:05;;;;;;;21.00;11.88;;;;;;;8.06;64.70;103090.34;5076429;28;20028;-88
2022/03/26 07:55:30;;;;;;;19.20;11.82;;;;;;;8.11;64.44;103081.84;5092645;28;20038;-88
2022/03/26 07:57:58;;;;;;;20.73;12.18;;;;;;;8.21;63.94;103074.56;5075777;28;20036;-88
2022/03/26 08:00:26;;;;;;;20.55;13.00;;;;;;;8.32;63.87;103076.25;5092048;28;20055;-88
2022/03/26 08:02:54;;;;;;;19.27;11.65;;;;;;;8.35;63.56;103076.78;5108087;28;20056;-89
2022/03/26 08:05:19;;;;;;;16.13;10.93;;;;;;;8.49;63.21;103088.16;5092426;28;20046;-87
2022/03/26 08:07:45;;;;;;;20.40;12.25;;;;;;;8.53;63.29;103076.94;5075271;28;20024;-87
2022/03/26 08:10:10;;;;;;;20.55;11.80;;;;;;;8.68;63.10;103084.56;5109877;28;20024;-88
2022/03/26 08:12:36;;;;;;;17.48;11.18;;;;;;;8.71;62.50;103074.31;5111672;28;20024;-88
2022/03/26 08:15:05;;;;;;;15.77;10.05;;;;;;;8.82;62.46;103073.25;5096406;28;20039;-87
2022/03/26 08:17:34;;;;;;;16.73;10.25;;;;;;;8.90;62.06;103081.50;5096111;28;20036;-87
2022/03/26 08:20:02;;;;;;;17.80;10.32;;;;;;;9.00;61.60;103080.59;5113340;28;20016;-87
2022/03/26 08:22:28;;;;;;;15.30;9.65;;;;;;;9.16;61.35;103091.59;5112339;28;20045;-87
2022/03/26 08:24:55;;;;;;;14.00;9.43;;;;;;;9.27;61.65;103090.53;5112637;28;20024;-87
2022/03/26 08:27:24;;;;;;;14.70;9.45;;;;;;;9.36;61.42;103086.06;5096802;28;20036;-87
2022/03/26 08:29:52;;;;;;;15.18;9.52;;;;;;;9.43;60.93;103088.03;5095346;28;20027;-89
2022/03/26 08:32:18;;;;;;;15.32;9.05;;;;;;;9.51;61.11;103076.44;5095798;28;20058;-88
2022/03/26 08:34:49;;;;;;;15.45;9.40;;;;;;;9.69;60.82;103087.25;5113261;28;20169;-90
2022/03/26 08:37:15;;;;;;;15.90;9.65;;;;;;;9.71;60.00;103076.25;5097855;28;20107;-91
2022/03/26 08:39:40;;;;;;;16.60;9.73;;;;;;;9.86;60.24;103084.69;5096471;28;20059;-90
2022/03/26 08:42:18;;;;;;;15.27;9.20;;;;;;;10.03;59.77;103093.84;5097302;28;20024;-90
2022/03/26 08:44:43;;;;;;;17.88;9.13;;;;;;;10.09;60.09;103085.91;5113802;28;20035;-89
2022/03/26 08:47:11;;;;;;;15.52;9.88;;;;;;;10.20;59.58;103084.81;5112433;28;20466;-86
2022/03/26 08:49:36;;;;;;;17.35;11.10;;;;;;;10.31;58.73;103087.25;5095098;28;20051;-87
2022/03/26 08:52:05;;;;;;;15.88;9.18;;;;;;;10.51;58.05;103098.81;5094832;28;20024;-85
2022/03/26 08:54:30;;;;;;;14.80;8.63;;;;;;;10.58;58.68;103093.56;5094979;28;20056;-87
2022/03/26 08:56:56;;;;;;;15.50;9.20;;;;;;;10.72;58.33;103092.16;5095420;28;20032;-83
2022/03/26 08:59:23;;;;;;;17.33;9.52;;;;;;;10.90;58.52;103104.78;5111983;28;20455;-83
2022/03/26 09:01:49;;;;;;;17.67;9.80;;;;;;;11.02;57.66;103096.16;5111400;28;20044;-84
2022/03/26 09:04:14;;;;;;;19.88;11.90;;;;;;;11.13;57.25;103097.75;5078050;28;20031;-87
2022/03/26 09:06:42;;;;;;;19.13;11.32;;;;;;;11.21;57.39;103100.50;5077680;28;20106;-85
2022/03/26 09:09:07;;;;;;;19.35;12.23;;;;;;;11.28;56.88;103088.97;5078977;28;20444;-87
2022/03/26 09:11:34;;;;;;;15.95;10.38;;;;;;;11.36;56.17;103089.00;5078008;28;20028;-86
2022/03/26 09:14:00;;;;;;;19.15;11.80;;;;;;;11.45;56.02;103093.44;5095968;28;20028;-86
2022/03/26 09:16:26;;;;;;;18.23;11.13;;;;;;;11.55;56.29;103098.72;5112453;28;20042;-86
2022/03/26 09:18:51;;;;;;;19.15;11.75;;;;;;;11.66;55.92;103105.69;5094447;28;20035;-87
2022/03/26 09:21:17;;;;;;;17.52;10.95;;;;;;;11.80;56.18;103105.03;5094599;28;20471;-87
2022/03/26 09:23:48;;;;;;;16.17;10.13;;;;;;;11.97;55.60;103113.25;5093669;28;20040;-87
2022/03/26 09:26:13;;;;;;;15.18;9.57;;;;;;;12.07;55.17;103098.44;5094018;28;20107;-87
2022/03/26 09:28:39;;;;;;;17.08;11.18;;;;;;;12.22;54.85;103104.06;5094408;28;20120;-87
2022/03/26 09:31:05;;;;;;;17.60;11.20;;;;;;;12.36;54.51;103091.63;5061021;28;20036;-87
2022/03/26 09:33:30;;;;;;;16.98;10.43;;;;;;;12.50;54.54;103098.22;5094831;28;20090;-88
2022/03/26 09:35:56;;;;;;;13.77;9.00;;;;;;;12.70;53.38;103112.31;5094133;28;20450;-87
2022/03/26 09:38:21;;;;;;;17.10;10.15;;;;;;;12.78;52.59;103103.28;5093988;28;20108;-86
2022/03/26 09:40:47;;;;;;;19.23;11.35;;;;;;;12.87;52.50;103096.75;5076896;28;20032;-85
2022/03/26 09:43:14;;;;;;;19.48;11.55;;;;;;;13.02;51.94;103098.75;5093906;28;20028;-85
2022/03/26 09:45:40;;;;;;;20.33;11.93;;;;;;;13.07;51.60;103088.19;5110709;28;20081;-85
2022/03/26 09:48:05;;;;;;;15.27;10.15;;;;;;;13.22;51.64;103094.56;5094527;28;20118;-86
2022/03/26 09:50:31;;;;;;;15.25;9.73;;;;;;;13.41;51.51;103093.31;5077490;28;20051;-86
2022/03/26 09:52:57;;;;;;;17.95;10.35;;;;;;;13.56;50.96;103095.28;5110995;28;20024;-86
2022/03/26 09:55:23;;;;;;;18.30;10.48;;;;;;;13.67;50.83;103084.78;5093571;28;20114;-86
2022/03/26 09:57:49;;;;;;;15.23;9.02;;;;;;;13.86;50.27;103090.78;5094571;28;20024;-86
2022/03/26 10:00:15;;;;;;;15.57;9.93;;;;;;;13.95;49.20;103076.06;5110603;28;20031;-86
2022/03/26 10:02:41;;;;;;;15.73;9.80;;;;;;;14.13;49.40;103086.63;5093625;28;20083;-86
2022/03/26 10:05:12;;;;;;;20.42;11.77;;;;;;;14.29;48.57;103088.38;5076720;28;20078;-86
2022/03/26 10:07:38;;;;;;;19.27;11.48;;;;;;;14.38;48.20;103089.16;5094626;28;20556;-87
2022/03/26 10:10:04;;;;;;;17.05;10.93;;;;;;;14.51;48.06;103089.34;5094897;28;20460;-86
2022/03/26 10:12:30;;;;;;;16.75;10.88;;;;;;;14.63;47.34;103084.28;5093234;28;20032;-87
2022/03/26 10:15:00;;;;;;;18.35;11.00;;;;;;;14.73;46.94;103086.72;5095318;28;20027;-87
2022/03/26 10:17:31;;;;;;;15.85;10.15;;;;;;;14.89;47.63;103082.94;5092992;28;20020;-87
2022/03/26 10:19:58;;;;;;;16.23;9.88;;;;;;;15.13;46.41;103084.50;5093183;28;20076;-87
2022/03/26 10:22:25;;;;;;;17.60;10.60;;;;;;;15.33;46.12;103086.66;5093807;28;20111;-87
2022/03/26 10:24:52;;;;;;;14.90;9.27;;;;;;;15.44;44.86;103073.31;5093343;28;20059;-87
2022/03/26 10:27:17;;;;;;;13.30;9.02;;;;;;;15.58;44.83;103071.56;5094283;28;20443;-87
2022/03/26 10:29:59;;;;;;;15.43;9.55;;;;;;;15.73;45.36;103079.72;5093466;28;20020;-87
2022/03/26 10:32:41;;;;;;;15.45;8.77;;;;;;;15.93;44.47;103087.31;5092851;28;20486;-87
2022/03/26 10:35:11;;;;;;;;;;;;;;;16.14;45.15;103086.44;5094644;28;20023;-87
2022/03/26 10:37:48;;;;;;;15.10;8.45;;;;;;;16.24;43.62;103075.09;5109520;28;20354;-87
2022/03/26 10:40:20;;;;;;;12.73;8.00;;;;;;;16.40;42.05;103076.72;5093099;28;20020;-87
2022/03/26 10:43:01;;;;;;;13.77;7.97;;;;;;;16.53;39.70;103075.97;5093717;28;20038;-87
2022/03/26 10:45:28;;;;;;;13.60;7.67;;;;;;;16.71;42.24;103076.28;5094432;28;20032;-88
2022/03/26 10:47:59;;;;;;;12.95;8.60;;;;;;;16.80;39.06;103069.59;5109849;28;20371;-87
2022/03/26 10:50:27;;;;;;;14.43;8.70;;;;;;;16.97;38.99;103082.97;5093070;28;20089;-87
2022/03/26 10:53:03;;;;;;;19.02;10.45;;;;;;;17.18;37.79;103071.88;5092377;28;20494;-87
2022/03/26 10:55:29;;;;;;;18.50;9.70;;;;;;;17.35;37.82;103077.00;5093197;28;20027;-87
2022/03/26 10:57:58;;;;;;;19.20;10.32;;;;;;;17.52;36.51;103069.22;5094070;28;20036;-87
2022/03/26 11:00:23;;;;;;;16.50;9.40;;;;;;;17.60;37.58;103058.06;5093765;28;20364;-87
2022/03/26 11:02:49;;;;;;;14.35;8.52;;;;;;;17.79;36.49;103059.13;5092420;28;20043;-87
2022/03/26 11:05:14;;;;;;;15.85;8.50;;;;;;;18.05;35.47;103052.84;5092382;28;20344;-87
2022/03/26 11:07:45;;;;;;;11.63;7.38;;;;;;;18.34;35.85;103061.66;5092793;28;20438;-87
2022/03/26 11:10:12;;;;;;;11.10;6.47;;;;;;;18.65;35.17;103053.78;5093867;28;20019;-87
2022/03/26 11:12:49;;;;;;;13.75;7.60;;;;;;;18.92;37.02;103057.28;5109387;28;20074;-87
2022/03/26 11:15:39;;;;;;;13.95;8.25;;;;;;;19.25;35.25;103051.66;5094662;28;20028;-87
2022/03/26 11:18:27;;;;;;;14.30;8.43;;;;;;;19.70;34.43;103047.94;5110514;28;20024;-87
2022/03/26 11:21:19;;;;;;;14.05;8.15;;;;;;;21.41;33.15;103054.81;5109681;28;20031;-87
2022/03/26 11:24:16;;;;;;;16.23;8.93;;;;;;;25.07;30.08;103051.59;5092952;28;20048;-87
2022/03/26 11:26:46;;;;;;;13.07;7.78;;;;;;;27.72;25.01;103042.53;5093654;28;20023;-87